createdAt,value
2018-06-17T00:01:28.957Z,99.90
2018-06-17T00:03:56.078Z,99.90
2018-06-17T00:06:23.459Z,99.90
2018-06-17T00:08:50.630Z,99.90
2018-06-17T00:11:17.947Z,99.90
2018-06-17T00:13:45.075Z,99.90
2018-06-17T00:18:39.377Z,99.90
2018-06-17T00:21:06.521Z,99.90
2018-06-17T00:23:33.646Z,99.90
2018-06-17T00:26:00.774Z,99.90
2018-06-17T00:28:27.904Z,99.90
2018-06-17T00:30:55.534Z,99.90
2018-06-17T00:35:50.042Z,99.90
2018-06-17T00:38:17.668Z,99.90
2018-06-17T00:40:44.814Z,99.90
2018-06-17T00:43:11.985Z,99.90
2018-06-17T00:45:39.298Z,99.90
2018-06-17T00:48:06.439Z,99.90
2018-06-17T00:50:33.541Z,99.90
2018-06-17T00:53:00.650Z,99.90
2018-06-17T00:55:27.780Z,99.90
2018-06-17T00:57:54.973Z,99.90
2018-06-17T01:00:22.864Z,99.90
2018-06-17T01:02:50.156Z,99.90
2018-06-17T01:05:17.370Z,99.90
2018-06-17T01:07:44.527Z,99.90
2018-06-17T01:10:11.702Z,99.90
2018-06-17T01:12:39.408Z,99.90
2018-06-17T01:15:06.828Z,99.90
2018-06-17T01:17:34.008Z,99.90
2018-06-17T01:20:11.125Z,99.90
2018-06-17T01:22:38.681Z,99.90
2018-06-17T01:25:05.970Z,99.90
2018-06-17T01:27:33.169Z,99.90
2018-06-17T01:30:00.391Z,99.90
2018-06-17T01:32:27.543Z,99.90
2018-06-17T01:34:54.693Z,99.90
2018-06-17T01:37:21.874Z,99.90
2018-06-17T01:39:49.088Z,99.90
2018-06-17T01:42:16.247Z,99.90
2018-06-17T01:44:43.350Z,99.90
2018-06-17T01:47:10.478Z,99.90
2018-06-17T01:49:37.591Z,99.90
2018-06-17T01:52:04.732Z,99.90
2018-06-17T01:54:31.820Z,99.90
2018-06-17T01:56:58.925Z,99.90
2018-06-17T01:59:26.086Z,99.90
2018-06-17T02:01:53.309Z,99.90
2018-06-17T02:04:26.471Z,99.90
2018-06-17T02:06:59.355Z,99.90
2018-06-17T02:09:32.363Z,99.90
2018-06-17T02:12:05.251Z,99.90
2018-06-17T02:14:38.118Z,99.90
2018-06-17T02:17:05.218Z,99.90
2018-06-17T02:19:32.399Z,99.90
2018-06-17T02:21:59.711Z,99.90
2018-06-17T02:24:26.887Z,99.90
2018-06-17T02:26:54.048Z,99.90
2018-06-17T02:29:21.296Z,99.90
2018-06-17T02:31:48.435Z,99.90
2018-06-17T02:34:15.546Z,99.90
2018-06-17T02:36:42.739Z,99.90
2018-06-17T02:39:10.053Z,99.90
2018-06-17T02:41:37.514Z,99.90
2018-06-17T02:44:04.722Z,99.90
2018-06-17T02:46:37.682Z,99.90
2018-06-17T02:49:11.063Z,99.90
2018-06-17T02:51:44.534Z,99.90
2018-06-17T02:54:17.300Z,99.90
2018-06-17T02:56:44.394Z,99.90
2018-06-17T02:59:11.491Z,99.90
2018-06-17T03:01:38.612Z,99.90
2018-06-17T03:04:05.791Z,99.90
2018-06-17T03:06:32.935Z,99.90
2018-06-17T03:09:00.199Z,99.90
2018-06-17T03:11:27.443Z,99.90
2018-06-17T03:13:54.558Z,99.90
2018-06-17T03:18:48.797Z,99.90
2018-06-17T03:21:15.906Z,99.90
2018-06-17T03:23:43.014Z,99.90
2018-06-17T03:26:15.763Z,99.90
2018-06-17T03:28:48.568Z,99.90
2018-06-17T03:31:16.759Z,99.90
2018-06-17T03:33:45.740Z,99.90
2018-06-17T03:36:13.067Z,99.90
2018-06-17T03:41:08.655Z,99.90
2018-06-17T03:43:36.036Z,99.90
2018-06-17T03:46:03.223Z,99.90
2018-06-17T03:48:30.450Z,99.90
2018-06-17T03:50:57.853Z,99.90
2018-06-17T03:53:24.985Z,99.90
2018-06-17T03:55:52.098Z,99.90
2018-06-17T03:58:19.219Z,99.90
2018-06-17T04:00:46.374Z,99.90
2018-06-17T04:03:13.527Z,99.90
2018-06-17T04:05:40.646Z,99.40
2018-06-17T04:08:07.758Z,97.80
2018-06-17T04:10:34.895Z,96.20
2018-06-17T04:13:02.098Z,94.50
2018-06-17T04:15:29.421Z,93.40
2018-06-17T04:17:56.618Z,90.60
2018-06-17T04:20:23.746Z,90.10
2018-06-17T04:22:50.851Z,88.90
2018-06-17T04:25:17.989Z,87.70
2018-06-17T04:27:45.110Z,85.70
2018-06-17T04:30:12.210Z,85.60
2018-06-17T04:32:39.322Z,84.30
2018-06-17T04:35:06.472Z,82.60
2018-06-17T04:37:33.640Z,83.00
2018-06-17T04:40:00.820Z,82.50
2018-06-17T04:42:28.039Z,82.60
2018-06-17T04:44:55.165Z,83.20
2018-06-17T04:47:22.254Z,83.80
2018-06-17T04:49:49.398Z,84.20
2018-06-17T04:52:16.562Z,84.00
2018-06-17T04:54:43.863Z,83.20
2018-06-17T04:57:11.113Z,83.20
2018-06-17T04:59:38.236Z,82.00
2018-06-17T05:02:05.345Z,82.70
2018-06-17T05:04:32.489Z,81.30
2018-06-17T05:06:59.637Z,81.10
2018-06-17T05:09:26.812Z,80.70
2018-06-17T05:11:53.927Z,80.50
2018-06-17T05:14:21.152Z,81.00
2018-06-17T05:16:48.293Z,81.80
2018-06-17T05:19:15.395Z,83.90
2018-06-17T05:21:42.498Z,83.80
2018-06-17T05:24:09.601Z,82.80
2018-06-17T05:26:36.734Z,83.30
2018-06-17T05:29:04.007Z,79.90
2018-06-17T05:33:58.582Z,83.40
2018-06-17T05:36:25.868Z,81.50
2018-06-17T05:38:52.998Z,80.20
2018-06-17T05:41:20.130Z,78.70
2018-06-17T05:43:47.227Z,78.50
2018-06-17T05:46:14.329Z,78.50
2018-06-17T05:48:41.450Z,77.90
2018-06-17T05:51:08.562Z,78.60
2018-06-17T05:53:35.782Z,77.00
2018-06-17T05:56:02.960Z,71.60
2018-06-17T05:58:30.108Z,61.70
2018-06-17T06:00:57.260Z,55.60
2018-06-17T06:03:24.438Z,52.10
2018-06-17T06:05:51.566Z,49.40
2018-06-17T06:08:18.691Z,48.00
2018-06-17T06:10:45.826Z,44.30
2018-06-17T06:13:12.954Z,44.30
2018-06-17T06:15:40.147Z,42.70
2018-06-17T06:18:07.245Z,42.80
2018-06-17T06:20:34.363Z,41.30
2018-06-17T06:23:01.514Z,41.90
2018-06-17T06:25:28.722Z,39.00
2018-06-17T06:27:55.850Z,40.30
2018-06-17T06:30:23.038Z,38.80
2018-06-17T06:32:50.201Z,40.00
2018-06-17T06:35:17.347Z,39.60
2018-06-17T06:37:44.491Z,40.20
2018-06-17T06:40:11.652Z,42.70
2018-06-17T06:42:38.804Z,45.70
2018-06-17T06:45:05.930Z,46.00
2018-06-17T06:47:33.065Z,43.90
2018-06-17T06:50:00.226Z,43.10
2018-06-17T06:52:27.357Z,42.90
2018-06-17T06:54:54.530Z,43.50
2018-06-17T06:57:21.662Z,44.60
2018-06-17T06:59:48.858Z,44.90
2018-06-17T07:02:27.794Z,45.00
2018-06-17T07:05:06.650Z,44.30
2018-06-17T07:07:45.645Z,44.20
2018-06-17T07:10:20.496Z,42.10
2018-06-17T07:12:47.646Z,39.40
2018-06-17T07:15:14.763Z,35.80
2018-06-17T07:17:53.698Z,32.00
2018-06-17T07:20:20.811Z,31.70
2018-06-17T07:22:47.938Z,30.00
2018-06-17T07:25:26.209Z,29.70
2018-06-17T07:28:10.442Z,32.20
2018-06-17T07:30:37.553Z,34.30
2018-06-17T07:33:04.704Z,33.60
2018-06-17T07:35:31.903Z,32.00
2018-06-17T07:37:59.091Z,31.30
2018-06-17T07:40:48.788Z,32.00
2018-06-17T07:43:15.941Z,33.90
2018-06-17T07:45:43.050Z,31.30
2018-06-17T07:48:10.467Z,31.00
2018-06-17T07:50:49.243Z,29.80
2018-06-17T07:53:17.893Z,29.50
2018-06-17T07:55:45.574Z,29.60
2018-06-17T07:58:13.234Z,29.80
2018-06-17T08:00:40.341Z,29.70
2018-06-17T08:03:07.490Z,30.10
2018-06-17T08:05:34.623Z,29.90
2018-06-17T08:08:01.880Z,28.80
2018-06-17T08:10:29.149Z,28.40
2018-06-17T08:12:56.314Z,28.00
2018-06-17T08:15:24.122Z,26.90
2018-06-17T08:17:51.237Z,26.70
2018-06-17T08:20:18.358Z,26.60
2018-06-17T08:22:45.466Z,26.40
2018-06-17T08:25:12.578Z,26.40
2018-06-17T08:27:39.718Z,27.80
2018-06-17T08:30:06.877Z,28.30
2018-06-17T08:32:34.039Z,30.60
2018-06-17T08:35:01.243Z,31.40
2018-06-17T08:37:28.432Z,30.00
2018-06-17T08:39:55.571Z,28.60
2018-06-17T08:42:22.717Z,28.90
2018-06-17T08:44:49.862Z,29.40
2018-06-17T08:47:16.973Z,31.50
2018-06-17T08:49:44.078Z,34.40
2018-06-17T08:52:11.191Z,35.20
2018-06-17T08:54:38.310Z,35.80
2018-06-17T08:57:05.522Z,34.70
2018-06-17T08:59:32.654Z,34.50
2018-06-17T09:01:59.921Z,33.50
2018-06-17T09:04:27.150Z,30.60
2018-06-17T09:06:54.396Z,29.30
2018-06-17T09:09:21.555Z,27.90
2018-06-17T09:11:48.657Z,26.90
2018-06-17T09:14:15.786Z,26.20
2018-06-17T09:16:42.893Z,26.20
2018-06-17T09:19:10.016Z,26.70
2018-06-17T09:21:37.159Z,27.90
2018-06-17T09:24:04.448Z,29.10
2018-06-17T09:26:31.658Z,29.90
2018-06-17T09:28:59.037Z,31.20
2018-06-17T09:31:26.182Z,33.30
2018-06-17T09:33:53.440Z,34.50
2018-06-17T09:36:20.554Z,36.00
2018-06-17T09:38:47.726Z,37.80
2018-06-17T09:41:14.871Z,37.50
2018-06-17T09:46:09.146Z,36.30
2018-06-17T09:48:36.271Z,35.80
2018-06-17T09:51:03.558Z,36.70
2018-06-17T09:53:30.711Z,36.60
2018-06-17T09:55:57.976Z,34.90
2018-06-17T09:58:25.498Z,35.20
2018-06-17T10:00:52.679Z,35.80
2018-06-17T10:03:19.830Z,35.50
2018-06-17T10:05:46.934Z,35.40
2018-06-17T10:08:14.053Z,36.00
2018-06-17T10:10:44.566Z,36.20
2018-06-17T10:13:12.253Z,36.60
2018-06-17T10:15:39.761Z,35.80
2018-06-17T10:18:06.886Z,36.00
2018-06-17T10:20:34.241Z,35.70
2018-06-17T10:23:01.443Z,36.50
2018-06-17T10:25:28.642Z,35.90
2018-06-17T10:30:23.610Z,35.50
2018-06-17T10:32:50.763Z,35.80
2018-06-17T10:35:17.878Z,35.50
2018-06-17T10:37:45.017Z,36.30
2018-06-17T10:40:12.147Z,36.50
2018-06-17T10:42:39.350Z,36.50
2018-06-17T10:45:06.573Z,37.10
2018-06-17T10:47:33.755Z,37.30
2018-06-17T10:50:00.941Z,36.70
2018-06-17T10:52:28.135Z,37.40
2018-06-17T10:54:55.813Z,36.40
2018-06-17T10:57:23.054Z,36.50
2018-06-17T10:59:50.444Z,36.70
2018-06-17T11:04:44.702Z,37.20
2018-06-17T11:07:12.221Z,36.30
2018-06-17T11:09:40.401Z,36.20
2018-06-17T11:12:07.696Z,35.70
2018-06-17T11:19:29.588Z,36.70
2018-06-17T11:21:56.778Z,36.90
2018-06-17T11:24:23.890Z,36.30
2018-06-17T11:26:51.055Z,37.30
2018-06-17T11:29:18.174Z,36.80
2018-06-17T11:31:45.289Z,37.00
2018-06-17T11:34:12.442Z,36.80
2018-06-17T11:36:39.556Z,37.20
2018-06-17T11:39:07.747Z,37.50
2018-06-17T11:41:34.774Z,37.20
2018-06-17T11:44:01.941Z,37.20
2018-06-17T11:46:29.234Z,37.30
2018-06-17T11:48:56.402Z,37.20
2018-06-17T11:51:23.541Z,36.80
2018-06-17T11:53:50.683Z,36.60
2018-06-17T11:56:17.824Z,37.70
2018-06-17T11:58:45.085Z,37.80
2018-06-17T12:01:12.297Z,37.20
2018-06-17T12:03:39.423Z,37.10
2018-06-17T12:06:06.531Z,37.90
2018-06-17T12:08:33.681Z,38.20
2018-06-17T12:11:00.961Z,39.10
2018-06-17T12:13:28.160Z,40.60
2018-06-17T12:15:55.298Z,40.70
2018-06-17T12:18:22.430Z,41.10
2018-06-17T12:23:16.737Z,39.80
2018-06-17T12:25:43.842Z,39.80
2018-06-17T12:28:10.942Z,39.50
2018-06-17T12:30:38.050Z,38.20
2018-06-17T12:35:32.428Z,38.90
2018-06-17T12:37:59.820Z,39.20
2018-06-17T12:40:26.950Z,39.10
2018-06-17T12:42:54.082Z,38.90
2018-06-17T12:45:21.238Z,38.40
2018-06-17T12:47:48.406Z,38.70
2018-06-17T12:50:15.644Z,37.90
2018-06-17T12:52:42.754Z,38.90
2018-06-17T12:55:10.677Z,39.10
2018-06-17T12:57:37.793Z,38.20
2018-06-17T13:00:05.402Z,38.70
2018-06-17T13:02:32.640Z,38.50
2018-06-17T13:04:59.830Z,38.60
2018-06-17T13:07:26.983Z,39.00
2018-06-17T13:09:54.099Z,39.20
2018-06-17T13:12:21.288Z,39.90
2018-06-17T13:14:48.414Z,40.00
2018-06-17T13:17:15.630Z,39.50
2018-06-17T13:19:42.759Z,39.50
2018-06-17T13:22:10.063Z,39.00
2018-06-17T13:24:37.223Z,38.70
2018-06-17T13:27:04.420Z,38.10
2018-06-17T13:29:31.675Z,37.70
2018-06-17T13:31:58.851Z,38.10
2018-06-17T13:34:25.984Z,38.20
2018-06-17T13:36:53.115Z,38.20
2018-06-17T13:39:20.281Z,38.30
2018-06-17T13:41:47.392Z,38.60
2018-06-17T13:44:14.553Z,39.10
2018-06-17T13:46:41.762Z,39.40
2018-06-17T13:49:08.980Z,39.70
2018-06-17T13:51:36.098Z,39.90
2018-06-17T13:54:03.356Z,39.70
2018-06-17T13:56:30.588Z,39.30
2018-06-17T13:58:58.258Z,39.20
2018-06-17T14:01:25.430Z,39.70
2018-06-17T14:03:52.595Z,39.30
2018-06-17T14:06:19.815Z,39.50
2018-06-17T14:08:46.939Z,39.60
2018-06-17T14:11:14.118Z,39.90
2018-06-17T14:13:41.263Z,39.90
2018-06-17T14:16:08.391Z,40.40
2018-06-17T14:18:35.542Z,40.60
2018-06-17T14:21:02.916Z,41.40
2018-06-17T14:23:30.092Z,41.40
2018-06-17T14:25:57.266Z,42.10
2018-06-17T14:28:24.395Z,42.50
2018-06-17T14:30:51.512Z,43.10
2018-06-17T14:33:18.606Z,43.40
2018-06-17T14:35:45.726Z,43.30
2018-06-17T14:38:12.866Z,42.90
2018-06-17T14:40:45.785Z,42.60
2018-06-17T14:43:18.840Z,41.80
2018-06-17T14:45:51.811Z,41.80
2018-06-17T14:48:24.615Z,40.80
2018-06-17T14:50:58.430Z,40.90
2018-06-17T14:53:25.622Z,41.00
2018-06-17T14:55:52.763Z,41.60
2018-06-17T14:58:19.909Z,42.20
2018-06-17T15:00:47.017Z,42.90
2018-06-17T15:03:14.134Z,43.10
2018-06-17T15:05:41.239Z,43.50
2018-06-17T15:08:08.359Z,43.50
2018-06-17T15:10:35.520Z,43.50
2018-06-17T15:13:02.774Z,44.50
2018-06-17T15:15:30.035Z,44.90
2018-06-17T15:17:57.186Z,45.40
2018-06-17T15:20:24.315Z,45.30
2018-06-17T15:22:52.872Z,44.60
2018-06-17T15:25:20.014Z,45.20
2018-06-17T15:27:47.114Z,45.40
2018-06-17T15:30:14.230Z,45.10
2018-06-17T15:32:47.266Z,45.30
2018-06-17T15:35:20.110Z,45.70
2018-06-17T15:37:53.155Z,46.40
2018-06-17T15:42:52.060Z,46.20
2018-06-17T15:45:19.305Z,46.70
2018-06-17T15:47:46.414Z,46.70
2018-06-17T15:50:13.535Z,47.00
2018-06-17T15:52:40.653Z,46.60
2018-06-17T15:55:07.966Z,47.50
2018-06-17T15:57:35.165Z,48.40
2018-06-17T16:00:02.617Z,47.80
2018-06-17T16:02:30.728Z,48.70
2018-06-17T16:07:25.362Z,48.50
2018-06-17T16:09:52.466Z,48.30
2018-06-17T16:12:25.309Z,48.30
2018-06-17T16:14:58.220Z,48.50
2018-06-17T16:17:31.217Z,49.10
2018-06-17T16:20:05.089Z,48.30
2018-06-17T16:22:32.330Z,48.60
2018-06-17T16:24:59.518Z,48.20
2018-06-17T16:27:26.674Z,48.50
2018-06-17T16:29:53.789Z,48.20
2018-06-17T16:34:48.050Z,47.90
2018-06-17T16:37:15.160Z,48.20
2018-06-17T16:42:09.435Z,48.10
2018-06-17T16:44:36.572Z,47.50
2018-06-17T16:47:03.871Z,46.90
2018-06-17T16:49:31.078Z,46.90
2018-06-17T16:52:03.971Z,46.90
2018-06-17T16:54:36.780Z,47.30
2018-06-17T16:57:09.878Z,48.40
2018-06-17T16:59:42.738Z,49.30
2018-06-17T17:02:09.851Z,50.10
2018-06-17T17:04:36.963Z,50.20
2018-06-17T17:07:04.378Z,50.50
2018-06-17T17:09:31.628Z,50.40
2018-06-17T17:11:58.884Z,50.20
2018-06-17T17:14:26.034Z,50.20
2018-06-17T17:16:53.216Z,50.40
2018-06-17T17:19:20.382Z,50.30
2018-06-17T17:21:47.537Z,49.50
2018-06-17T17:24:14.662Z,50.20
2018-06-17T17:26:41.900Z,49.50
2018-06-17T17:29:09.056Z,48.90
2018-06-17T17:31:42.045Z,49.00
2018-06-17T17:34:15.013Z,49.30
2018-06-17T17:36:48.373Z,50.00
2018-06-17T17:41:48.360Z,49.90
2018-06-17T17:44:15.655Z,49.90
2018-06-17T17:46:48.511Z,50.00
2018-06-17T17:49:15.659Z,50.40
2018-06-17T17:51:42.814Z,50.70
2018-06-17T17:54:10.245Z,50.40
2018-06-17T17:56:37.390Z,50.10
2018-06-17T17:59:05.347Z,50.70
2018-06-17T18:01:32.551Z,50.60
2018-06-17T18:03:59.710Z,50.70
2018-06-17T18:06:26.967Z,50.60
2018-06-17T18:08:54.102Z,50.40
2018-06-17T18:11:21.215Z,50.50
2018-06-17T18:13:48.366Z,50.90
2018-06-17T18:16:15.970Z,51.20
2018-06-17T18:18:43.098Z,51.10
2018-06-17T18:21:10.275Z,51.40
2018-06-17T18:23:37.413Z,51.80
2018-06-17T18:26:10.259Z,52.00
2018-06-17T18:28:43.278Z,52.00
2018-06-17T18:31:10.431Z,52.40
2018-06-17T18:33:43.299Z,52.50
2018-06-17T18:36:12.886Z,52.50
2018-06-17T18:38:42.206Z,55.60
2018-06-17T18:41:10.398Z,58.20
2018-06-17T18:43:37.692Z,59.70
2018-06-17T18:46:05.019Z,61.30
2018-06-17T18:48:32.182Z,63.50
2018-06-17T18:50:59.410Z,65.50
2018-06-17T18:55:53.918Z,68.00
2018-06-17T18:58:21.051Z,68.70
2018-06-17T19:00:48.825Z,69.00
2018-06-17T19:03:15.979Z,70.20
2018-06-17T19:05:43.112Z,70.20
2018-06-17T19:10:49.044Z,71.80
2018-06-17T19:13:22.005Z,72.80
2018-06-17T19:15:55.078Z,74.50
2018-06-17T19:18:22.593Z,75.20
2018-06-17T19:23:16.858Z,77.20
2018-06-17T19:25:43.967Z,78.50
2018-06-17T19:28:11.090Z,80.30
2018-06-17T19:30:38.222Z,80.60
2018-06-17T19:33:05.375Z,80.30
2018-06-17T19:35:32.613Z,80.80
2018-06-17T19:37:59.796Z,81.70
2018-06-17T19:40:26.934Z,82.70
2018-06-17T19:42:54.062Z,83.40
2018-06-17T19:45:21.174Z,83.60
2018-06-17T19:47:48.479Z,83.30
2018-06-17T19:50:21.334Z,83.10
2018-06-17T19:52:54.191Z,83.90
2018-06-17T19:55:27.119Z,85.20
2018-06-17T19:58:00.203Z,85.60
2018-06-17T20:00:31.095Z,85.50
2018-06-17T20:02:58.302Z,86.00
2018-06-17T20:05:25.436Z,84.70
2018-06-17T20:07:53.426Z,84.50
2018-06-17T20:10:20.558Z,84.00
2018-06-17T20:12:47.680Z,84.70
2018-06-17T20:15:14.798Z,84.50
2018-06-17T20:17:41.938Z,84.40
2018-06-17T20:20:09.063Z,83.60
2018-06-17T20:22:36.224Z,83.10
2018-06-17T20:25:03.410Z,82.60
2018-06-17T20:27:30.553Z,82.90
2018-06-17T20:29:57.995Z,83.90
2018-06-17T20:32:30.914Z,83.60
2018-06-17T20:35:04.011Z,83.90
2018-06-17T20:38:40.834Z,84.30
2018-06-17T20:41:13.610Z,83.30
2018-06-17T20:43:48.707Z,83.40
2018-06-17T20:46:16.164Z,83.80
2018-06-17T20:48:43.388Z,84.50
2018-06-17T20:51:10.548Z,85.50
2018-06-17T20:53:37.714Z,85.90
2018-06-17T20:56:05.917Z,85.90
2018-06-17T20:58:33.093Z,85.80
2018-06-17T21:01:00.252Z,86.20
2018-06-17T21:03:27.430Z,87.10
2018-06-17T21:05:54.530Z,87.60
2018-06-17T21:08:21.775Z,87.60
2018-06-17T21:10:48.877Z,89.10
2018-06-17T21:13:15.979Z,89.90
2018-06-17T21:15:43.092Z,89.90
2018-06-17T21:18:10.194Z,89.90
2018-06-17T21:20:43.104Z,90.40
2018-06-17T21:23:16.143Z,90.00
2018-06-17T21:28:16.154Z,90.00
2018-06-17T21:30:43.252Z,90.60
2018-06-17T21:33:10.362Z,90.90
2018-06-17T21:35:37.483Z,91.00
2018-06-17T21:38:04.667Z,91.00
2018-06-17T21:40:31.799Z,91.10
2018-06-17T21:42:58.991Z,91.50
2018-06-17T21:45:26.090Z,91.50
2018-06-17T21:47:53.212Z,91.70
2018-06-17T21:50:20.318Z,91.80
2018-06-17T21:52:47.463Z,92.10
2018-06-17T21:55:14.594Z,92.40
2018-06-17T21:57:41.710Z,92.80
2018-06-17T22:00:09.472Z,93.40
2018-06-17T22:02:41.953Z,93.80
2018-06-17T22:05:09.121Z,95.20
2018-06-17T22:07:42.097Z,96.00
2018-06-17T22:11:13.211Z,95.40
2018-06-17T22:13:46.097Z,95.40
2018-06-17T22:16:19.184Z,95.90
2018-06-17T22:18:46.286Z,98.10
2018-06-17T22:21:13.406Z,99.90
2018-06-17T22:23:40.509Z,99.90
2018-06-17T22:26:07.616Z,99.90
2018-06-17T22:28:34.742Z,99.90
2018-06-17T22:31:01.889Z,99.90
2018-06-17T22:33:29.110Z,99.90
2018-06-17T22:35:56.227Z,99.90
2018-06-17T22:38:23.342Z,99.90
2018-06-17T22:40:50.450Z,99.90
2018-06-17T22:43:17.548Z,99.90
2018-06-17T22:45:44.630Z,99.90
2018-06-17T22:48:11.770Z,99.90
2018-06-17T22:50:38.870Z,99.90
2018-06-17T22:53:17.771Z,99.90
2018-06-17T22:55:44.929Z,99.90
2018-06-17T22:58:17.825Z,99.90
2018-06-17T23:00:50.654Z,99.90
2018-06-17T23:03:23.621Z,99.90
2018-06-17T23:05:56.511Z,99.90
2018-06-17T23:08:29.640Z,99.90
2018-06-17T23:10:56.756Z,99.90
2018-06-17T23:13:23.857Z,99.90
2018-06-17T23:15:51.045Z,99.90
2018-06-17T23:18:18.200Z,99.90
2018-06-17T23:20:45.354Z,99.90
2018-06-17T23:23:12.518Z,99.90
2018-06-17T23:25:39.621Z,99.90
2018-06-17T23:28:06.759Z,99.90
2018-06-17T23:30:33.899Z,99.90
2018-06-17T23:33:01.022Z,99.90
2018-06-17T23:35:28.203Z,99.90
2018-06-17T23:37:55.337Z,99.90
2018-06-17T23:40:22.454Z,99.90
2018-06-17T23:42:49.593Z,99.90
2018-06-17T23:45:16.726Z,99.90
2018-06-17T23:47:49.589Z,99.90
2018-06-17T23:50:22.654Z,99.90
2018-06-17T23:52:55.859Z,99.90
2018-06-17T23:55:28.685Z,99.90
2018-06-17T23:57:55.830Z,99.90
